createdAt,value
2022-10-05T00:00:26.370Z,3.17
2022-10-05T00:05:26.872Z,3.85
2022-10-05T00:10:19.490Z,7.70
2022-10-05T00:15:13.611Z,4.55
2022-10-05T00:20:18.965Z,5.95
2022-10-05T00:25:21.122Z,5.47
2022-10-05T00:30:18.870Z,4.38
2022-10-05T00:35:12.521Z,3.88
2022-10-05T00:40:27.034Z,8.15
2022-10-05T00:45:31.533Z,4.13
2022-10-05T00:50:36.522Z,5.00
2022-10-05T00:55:55.348Z,3.58
2022-10-05T01:01:09.687Z,7.25
2022-10-05T01:06:38.664Z,2.05
2022-10-05T01:11:41.402Z,3.13
2022-10-05T01:16:50.768Z,5.38
2022-10-05T01:22:09.628Z,5.18
2022-10-05T01:27:28.939Z,5.70
2022-10-05T01:32:23.903Z,4.80
2022-10-05T01:37:36.439Z,1.70
2022-10-05T01:42:43.619Z,2.88
2022-10-05T01:48:04.341Z,3.15
2022-10-05T01:53:04.910Z,6.13
2022-10-05T01:58:26.187Z,6.60
2022-10-05T02:03:24.747Z,5.50
2022-10-05T02:08:35.136Z,4.18
2022-10-05T02:13:40.124Z,3.78
2022-10-05T02:18:38.786Z,5.85
2022-10-05T02:23:35.916Z,6.60
2022-10-05T02:28:45.785Z,5.43
2022-10-05T02:33:37.497Z,2.83
2022-10-05T02:39:06.170Z,5.45
2022-10-05T02:44:23.138Z,2.38
2022-10-05T02:49:19.703Z,1.73
2022-10-05T02:54:34.640Z,3.55
2022-10-05T02:59:36.577Z,1.00
2022-10-05T03:04:46.332Z,3.60
2022-10-05T03:09:46.510Z,2.03
2022-10-05T03:15:04.413Z,2.03
2022-10-05T03:20:18.594Z,2.92
2022-10-05T03:25:22.574Z,2.35
2022-10-05T03:30:14.217Z,1.27
2022-10-05T03:35:18.047Z,3.55
2022-10-05T03:40:34.433Z,1.80
2022-10-05T03:45:48.562Z,1.38
2022-10-05T03:51:18.546Z,2.45
2022-10-05T03:56:14.495Z,1.98
2022-10-05T04:01:13.386Z,2.78
2022-10-05T04:06:17.915Z,2.00
2022-10-05T04:11:15.551Z,2.08
2022-10-05T04:16:19.638Z,1.85
2022-10-05T04:21:23.527Z,2.42
2022-10-05T04:26:25.033Z,2.65
2022-10-05T04:31:38.096Z,1.33
2022-10-05T04:36:39.578Z,2.05
2022-10-05T04:41:37.464Z,0.93
2022-10-05T04:51:40.186Z,4.18
2022-10-05T04:56:41.607Z,2.47
2022-10-05T05:02:01.288Z,4.28
2022-10-05T05:07:11.265Z,0.68
2022-10-05T05:12:40.668Z,1.52
2022-10-05T05:17:32.361Z,0.90
2022-10-05T05:23:05.613Z,0.77
2022-10-05T05:28:12.486Z,1.27
2022-10-05T05:33:20.598Z,1.55
2022-10-05T05:38:38.298Z,0.70
2022-10-05T05:43:46.233Z,1.00
2022-10-05T05:48:43.796Z,1.83
2022-10-05T05:53:45.909Z,0.20
2022-10-05T05:58:58.853Z,1.23
2022-10-05T06:03:58.072Z,0.75
2022-10-05T06:08:58.529Z,0.20
2022-10-05T06:13:51.661Z,1.38
2022-10-05T06:18:49.057Z,0.20
2022-10-05T06:24:07.105Z,0.22
2022-10-05T06:29:04.673Z,1.30
2022-10-05T06:34:19.718Z,0.30
2022-10-05T06:39:37.550Z,0.50
2022-10-05T06:44:40.969Z,0.45
2022-10-05T06:49:53.790Z,3.70
2022-10-05T06:54:51.837Z,1.48
2022-10-05T06:59:56.088Z,0.88
2022-10-05T07:05:10.275Z,5.18
2022-10-05T07:10:04.977Z,0.57
2022-10-05T07:15:05.719Z,0.10
2022-10-05T07:20:20.109Z,0.03
2022-10-05T07:25:11.730Z,0.10
2022-10-05T07:30:07.408Z,0.73
2022-10-05T07:35:40.481Z,0.15
2022-10-05T07:40:41.761Z,0.00
2022-10-05T07:45:55.215Z,0.20
2022-10-05T07:50:57.303Z,0.00
2022-10-05T07:55:53.745Z,0.20
2022-10-05T08:01:00.510Z,0.57
2022-10-05T08:05:52.525Z,0.00
2022-10-05T08:10:56.411Z,1.05
2022-10-05T08:15:53.977Z,0.10
2022-10-05T08:21:06.358Z,0.70
2022-10-05T08:26:31.805Z,0.22
2022-10-05T08:31:31.845Z,1.27
2022-10-05T08:36:53.768Z,0.00
2022-10-05T08:42:16.601Z,0.32
2022-10-05T08:47:11.046Z,0.10
2022-10-05T08:52:25.745Z,0.00
2022-10-05T08:57:36.194Z,0.00
2022-10-05T09:02:36.542Z,0.00
2022-10-05T09:07:37.382Z,0.08
2022-10-05T09:12:50.774Z,0.10
2022-10-05T09:18:10.298Z,0.15
2022-10-05T09:23:40.382Z,0.80
2022-10-05T09:28:46.321Z,0.22
2022-10-05T09:33:53.945Z,0.55
2022-10-05T09:38:51.332Z,0.00
2022-10-05T09:44:10.824Z,0.17
2022-10-05T09:49:40.086Z,0.08
2022-10-05T09:55:01.696Z,0.10
2022-10-05T09:59:53.353Z,0.10
2022-10-05T10:05:27.664Z,0.30
2022-10-05T10:10:44.638Z,0.45
2022-10-05T10:15:42.069Z,0.05
2022-10-05T10:20:54.946Z,0.20
2022-10-05T10:26:11.946Z,0.73
2022-10-05T10:31:41.342Z,0.38
2022-10-05T10:36:37.785Z,0.32
2022-10-05T10:42:07.882Z,0.08
2022-10-05T10:47:21.415Z,0.00
2022-10-05T10:52:28.413Z,0.10
2022-10-05T10:57:46.049Z,0.22
2022-10-05T11:02:56.766Z,0.27
2022-10-05T11:07:48.341Z,0.52
2022-10-05T11:12:55.265Z,0.50
2022-10-05T11:18:06.801Z,0.30
2022-10-05T11:23:03.433Z,0.22
2022-10-05T11:28:29.627Z,0.25
2022-10-05T11:33:43.210Z,0.47
2022-10-05T11:38:53.238Z,0.57
2022-10-05T11:44:06.960Z,0.40
2022-10-05T11:49:14.241Z,0.63
2022-10-05T11:54:21.191Z,0.25
2022-10-05T11:59:40.264Z,0.22
2022-10-05T12:04:53.379Z,1.00
2022-10-05T12:10:17.437Z,0.10
2022-10-05T12:15:17.924Z,0.40
2022-10-05T12:20:20.792Z,1.27
2022-10-05T12:25:42.906Z,0.80
2022-10-05T12:30:53.238Z,0.80
2022-10-05T12:36:08.023Z,0.50
2022-10-05T12:41:10.796Z,0.20
2022-10-05T12:46:20.578Z,0.68
2022-10-05T12:51:20.213Z,0.05
2022-10-05T12:56:24.003Z,1.08
2022-10-05T13:01:18.926Z,0.20
2022-10-05T13:06:38.344Z,0.10
2022-10-05T13:11:55.937Z,0.10
2022-10-05T13:17:24.549Z,0.73
2022-10-05T13:22:57.064Z,0.43
2022-10-05T13:27:55.733Z,1.40
2022-10-05T13:32:49.991Z,0.80
2022-10-05T13:37:58.143Z,0.00
2022-10-05T13:43:07.810Z,0.20
2022-10-05T13:48:42.585Z,0.55
2022-10-05T13:53:43.265Z,0.52
2022-10-05T13:58:34.794Z,0.30
2022-10-05T14:03:32.777Z,0.20
2022-10-05T14:08:32.169Z,0.75
2022-10-05T14:13:42.549Z,1.25
2022-10-05T14:18:37.385Z,0.77
2022-10-05T14:23:29.664Z,4.30
2022-10-05T14:28:30.881Z,0.22
2022-10-05T14:33:24.833Z,1.05
2022-10-05T14:38:26.372Z,1.42
2022-10-05T14:43:20.683Z,0.25
2022-10-05T14:48:12.524Z,0.20
2022-10-05T14:53:21.682Z,1.15
2022-10-05T14:58:25.289Z,1.65
2022-10-05T15:03:39.406Z,0.25
2022-10-05T15:08:53.966Z,0.45
2022-10-05T15:13:48.932Z,2.05
2022-10-05T15:19:00.341Z,0.20
2022-10-05T15:24:01.188Z,1.67
2022-10-05T15:29:27.785Z,0.75
2022-10-05T15:34:23.512Z,0.98
2022-10-05T15:39:43.341Z,1.70
2022-10-05T15:44:54.123Z,1.40
2022-10-05T15:50:14.538Z,1.83
2022-10-05T15:55:30.119Z,2.22
2022-10-05T16:00:23.146Z,3.40
2022-10-05T16:05:51.158Z,1.08
2022-10-05T16:10:45.149Z,3.40
2022-10-05T16:15:42.824Z,1.40
2022-10-05T16:20:53.428Z,1.73
2022-10-05T16:25:54.346Z,1.48
2022-10-05T16:30:48.612Z,3.15
2022-10-05T16:36:00.301Z,3.95
2022-10-05T16:41:01.949Z,2.67
2022-10-05T16:46:03.262Z,2.58
2022-10-05T16:51:19.756Z,4.60
2022-10-05T16:56:18.649Z,2.75
2022-10-05T17:01:42.457Z,4.28
2022-10-05T17:06:45.954Z,6.93
2022-10-05T17:12:22.210Z,2.95
2022-10-05T17:17:51.135Z,4.97
2022-10-05T17:28:09.986Z,5.78
2022-10-05T17:33:25.000Z,5.47
2022-10-05T17:38:22.054Z,4.72
2022-10-05T17:43:17.201Z,2.97
2022-10-05T17:48:10.798Z,6.13
2022-10-05T17:54:05.498Z,5.10
2022-10-05T17:59:00.610Z,4.22
2022-10-05T18:03:52.771Z,4.20
2022-10-05T18:08:44.529Z,3.35
2022-10-05T18:13:46.325Z,6.03
2022-10-05T18:18:44.177Z,6.53
2022-10-05T18:23:37.150Z,7.53
2022-10-05T18:28:40.860Z,6.20
2022-10-05T18:33:41.699Z,6.93
2022-10-05T18:38:48.579Z,8.25
2022-10-05T18:43:48.488Z,2.25
2022-10-05T18:49:04.602Z,5.40
2022-10-05T18:54:07.677Z,3.50
2022-10-05T18:59:08.439Z,4.57
2022-10-05T19:04:22.550Z,3.10
2022-10-05T19:09:41.665Z,5.85
2022-10-05T19:14:57.671Z,5.15
2022-10-05T19:20:21.455Z,4.20
2022-10-05T19:25:38.152Z,1.20
2022-10-05T19:31:02.056Z,5.57
2022-10-05T19:36:12.009Z,2.28
2022-10-05T19:41:22.509Z,2.17
2022-10-05T19:46:30.960Z,2.85
2022-10-05T19:51:29.440Z,3.50
2022-10-05T19:56:25.239Z,2.00
2022-10-05T20:01:47.920Z,2.17
2022-10-05T20:06:39.706Z,3.03
2022-10-05T20:11:32.154Z,3.88
2022-10-05T20:16:50.406Z,2.45
2022-10-05T20:21:52.717Z,1.80
2022-10-05T20:27:12.621Z,3.35
2022-10-05T20:32:08.779Z,4.15
2022-10-05T20:37:00.632Z,5.75
2022-10-05T20:41:52.361Z,12.43
2022-10-05T20:46:46.114Z,3.60
2022-10-05T20:51:40.190Z,6.78
2022-10-05T20:56:31.943Z,7.47
2022-10-05T21:01:26.616Z,5.18
2022-10-05T21:06:18.636Z,1.92
2022-10-05T21:11:10.266Z,5.18
2022-10-05T21:16:02.594Z,2.05
2022-10-05T21:20:57.541Z,5.53
2022-10-05T21:25:51.621Z,3.00
2022-10-05T21:30:43.429Z,4.30
2022-10-05T21:35:35.152Z,5.35
2022-10-05T21:40:26.726Z,4.07
2022-10-05T21:45:18.366Z,7.13
2022-10-05T21:50:10.431Z,2.92
2022-10-05T21:55:03.227Z,7.25
2022-10-05T21:59:55.021Z,4.28
2022-10-05T22:04:46.719Z,4.38
2022-10-05T22:09:38.365Z,6.25
2022-10-05T22:14:30.120Z,3.92
2022-10-05T22:19:21.820Z,4.28
2022-10-05T22:24:14.246Z,5.28
2022-10-05T22:29:06.047Z,4.43
2022-10-05T22:33:57.915Z,1.40
2022-10-05T22:38:49.655Z,4.05
2022-10-05T22:43:41.425Z,7.70
2022-10-05T22:48:33.118Z,5.45
2022-10-05T22:53:24.736Z,2.30
2022-10-05T22:58:16.474Z,5.30
2022-10-05T23:03:08.090Z,5.35
2022-10-05T23:08:02.319Z,8.52
2022-10-05T23:13:00.592Z,4.30
2022-10-05T23:17:56.186Z,4.03
2022-10-05T23:22:47.785Z,4.15
2022-10-05T23:27:41.414Z,4.28
2022-10-05T23:32:37.902Z,3.40
2022-10-05T23:37:29.887Z,2.15
2022-10-05T23:42:21.590Z,2.95
2022-10-05T23:47:13.209Z,3.28
2022-10-05T23:52:04.911Z,6.30
2022-10-05T23:56:56.760Z,3.80
